Time;durP1;ratioP1;P1;durP2;ratioP2;P2;SDS_P1;SDS_P2;PMS_P1;PMS_P2;Temp;Humidity;BMP_temperature;BMP_pressure;BME280_temperature;BME280_humidity;BME280_pressure;Samples;Min_cycle;Max_cycle;Signal;HPM_P1;HPM_P2
2023/12/23 00:00:18;;;;;;;0.30;0.30;;;;;;;26.38;65.65;100766.34;10498898;28;20093;-81
2023/12/23 00:05:20;;;;;;;0.00;0.00;;;;;;;26.67;66.09;100760.72;10481667;28;20059;-81
2023/12/23 00:10:22;;;;;;;0.20;0.20;;;;;;;25.56;67.42;100764.38;10504473;28;20040;-82
2023/12/23 00:15:23;;;;;;;13.93;0.45;;;;;;;26.96;65.11;100771.81;10479816;28;20053;-81
2023/12/23 00:20:25;;;;;;;0.00;0.00;;;;;;;25.74;66.52;100770.69;10494622;28;20045;-81
2023/12/23 00:25:27;;;;;;;0.00;0.00;;;;;;;25.92;67.20;100770.84;10478531;28;20601;-81
2023/12/23 00:30:29;;;;;;;0.28;0.10;;;;;;;26.55;65.51;100773.53;10474400;28;20045;-81
2023/12/23 00:35:31;;;;;;;0.00;0.00;;;;;;;25.37;66.70;100765.94;10463262;28;20049;-81
2023/12/23 00:40:33;;;;;;;0.00;0.00;;;;;;;27.44;64.82;100754.63;10477512;28;20037;-81
2023/12/23 00:45:35;;;;;;;0.00;0.00;;;;;;;26.88;65.68;100753.66;10477095;28;20068;-81
2023/12/23 00:50:37;;;;;;;0.00;0.00;;;;;;;25.91;67.21;100754.16;10475348;28;20094;-81
2023/12/23 00:55:39;;;;;;;0.00;0.00;;;;;;;25.39;67.04;100753.59;10499175;28;20044;-81
2023/12/23 01:00:41;;;;;;;0.00;0.00;;;;;;;25.61;66.95;100754.47;10483099;28;20139;-80
2023/12/23 01:05:43;;;;;;;0.00;0.00;;;;;;;27.01;65.57;100759.22;10454815;28;20479;-80
2023/12/23 01:10:45;;;;;;;0.00;0.00;;;;;;;26.11;62.14;100760.44;10474772;28;20028;-81
2023/12/23 01:15:47;;;;;;;2.55;0.52;;;;;;;25.15;65.57;100766.75;10480205;28;20116;-81
2023/12/23 01:20:49;;;;;;;0.00;0.00;;;;;;;25.92;65.06;100760.28;10475931;28;20388;-81
2023/12/23 01:25:51;;;;;;;0.00;0.00;;;;;;;26.09;65.05;100770.22;10458638;28;20040;-81
2023/12/23 01:30:53;;;;;;;0.00;0.00;;;;;;;27.10;64.95;100761.47;10460333;28;20096;-81
2023/12/23 01:35:55;;;;;;;0.00;0.00;;;;;;;28.48;64.67;100739.81;10469752;28;20044;-81
2023/12/23 01:40:57;;;;;;;0.00;0.00;;;;;;;29.59;62.40;100737.47;10468470;28;20044;-82
2023/12/23 01:46:01;;;;;;;0.00;0.00;;;;;;;30.86;60.93;100745.97;10475067;28;20498;-82
2023/12/23 01:51:03;;;;;;;0.08;0.08;;;;;;;29.42;62.56;100735.75;10475029;28;20659;-81
2023/12/23 01:56:06;;;;;;;0.00;0.00;;;;;;;30.61;61.06;100731.53;10474273;28;20487;-82
2023/12/23 02:01:08;;;;;;;0.00;0.00;;;;;;;33.28;57.40;100719.19;10473931;28;20052;-82
2023/12/23 02:06:10;;;;;;;0.00;0.00;;;;;;;31.12;59.57;100741.72;10454592;28;20041;-82
2023/12/23 02:11:21;;;;;;;0.00;0.00;;;;;;;31.65;59.05;100727.66;10478322;28;20049;-82
2023/12/23 02:16:24;;;;;;;0.00;0.00;;;;;;;30.65;60.77;100722.41;10506849;28;20041;-82
2023/12/23 02:21:26;;;;;;;0.00;0.00;;;;;;;29.12;63.58;100724.09;10473250;28;20033;-82
2023/12/23 02:26:31;;;;;;;0.00;0.00;;;;;;;31.35;60.88;100698.59;10472851;28;20072;-82
2023/12/23 02:31:34;;;;;;;0.00;0.00;;;;;;;28.93;62.46;100700.38;10489782;28;20064;-82
2023/12/23 02:36:38;;;;;;;0.10;0.10;;;;;;;29.02;63.25;100669.84;10457151;28;20566;-81
2023/12/23 02:41:40;;;;;;;0.00;0.00;;;;;;;28.49;65.53;100656.72;10476942;28;20120;-81
2023/12/23 02:46:42;;;;;;;0.00;0.00;;;;;;;28.32;65.38;100655.00;10470000;28;20153;-81
2023/12/23 02:51:44;;;;;;;0.00;0.00;;;;;;;29.35;64.71;100639.75;10449465;28;20052;-81
2023/12/23 02:56:46;;;;;;;0.00;0.00;;;;;;;27.43;66.42;100639.19;10465766;28;20491;-81
2023/12/23 03:01:48;;;;;;;0.10;0.10;;;;;;;27.80;67.86;100621.47;10466223;28;20392;-82
2023/12/23 03:06:49;;;;;;;0.00;0.00;;;;;;;26.69;69.67;100605.63;10462205;28;20052;-82
2023/12/23 03:11:51;;;;;;;1.52;1.42;;;;;;;25.96;72.08;100601.75;10482194;28;20071;-81
2023/12/23 03:16:53;;;;;;;0.00;0.00;;;;;;;27.51;70.65;100581.47;10468809;28;20056;-81
2023/12/23 03:21:55;;;;;;;0.25;0.25;;;;;;;26.67;70.71;100575.78;10481230;28;20408;-81
2023/12/23 03:26:56;;;;;;;1.38;0.35;;;;;;;26.74;72.71;100562.19;10484292;28;20050;-81
2023/12/23 03:31:58;;;;;;;0.00;0.00;;;;;;;26.55;73.53;100556.91;10486089;28;20041;-81
2023/12/23 03:37:00;;;;;;;0.00;0.00;;;;;;;26.74;73.69;100529.63;10478180;28;20056;-81
2023/12/23 03:42:02;;;;;;;0.00;0.00;;;;;;;27.21;72.75;100517.69;10487821;28;20040;-82
2023/12/23 03:47:04;;;;;;;0.22;0.22;;;;;;;27.63;73.93;100512.97;10487630;28;20107;-82
2023/12/23 03:52:05;;;;;;;0.00;0.00;;;;;;;25.63;75.79;100504.69;10481366;28;20076;-82
2023/12/23 03:57:07;;;;;;;0.30;0.30;;;;;;;27.01;74.00;100493.09;10478677;28;20067;-82
2023/12/23 04:02:09;;;;;;;0.00;0.00;;;;;;;25.52;78.29;100485.81;10491563;28;20127;-83
2023/12/23 04:07:12;;;;;;;0.00;0.00;;;;;;;28.13;75.68;100469.72;10467467;28;20040;-82
2023/12/23 04:12:13;;;;;;;0.20;0.20;;;;;;;27.18;79.66;100452.59;10481804;28;20045;-82
2023/12/23 04:17:15;;;;;;;0.30;0.20;;;;;;;26.31;80.75;100434.78;10476083;28;20041;-82
2023/12/23 04:22:17;;;;;;;0.20;0.15;;;;;;;26.91;81.25;100421.34;10478839;28;20040;-82
2023/12/23 04:27:19;;;;;;;0.20;0.10;;;;;;;26.13;81.40;100418.91;10482664;28;20044;-82
2023/12/23 04:32:21;;;;;;;0.55;0.40;;;;;;;25.87;84.64;100406.91;10475983;28;20036;-83
2023/12/23 04:37:25;;;;;;;0.28;0.28;;;;;;;26.50;83.71;100404.88;10481548;28;20102;-83
2023/12/23 04:42:27;;;;;;;0.00;0.00;;;;;;;25.71;84.92;100403.25;10497361;28;20074;-82
2023/12/23 04:47:28;;;;;;;2.10;0.45;;;;;;;26.15;84.25;100404.75;10466835;28;20048;-83
2023/12/23 04:52:30;;;;;;;1.75;0.32;;;;;;;25.53;86.47;100391.75;10474711;28;20044;-82
2023/12/23 04:57:34;;;;;;;0.20;0.20;;;;;;;25.49;84.29;100393.66;10475689;28;20049;-82
2023/12/23 05:02:35;;;;;;;0.47;0.10;;;;;;;26.01;85.48;100392.19;10475415;28;20099;-83
2023/12/23 05:07:37;;;;;;;0.73;0.20;;;;;;;26.56;83.61;100399.28;10486362;28;20052;-82
2023/12/23 05:12:39;;;;;;;0.00;0.00;;;;;;;24.98;86.60;100380.00;10485472;28;20048;-83
2023/12/23 05:17:41;;;;;;;0.00;0.00;;;;;;;25.83;88.85;100376.28;10493157;28;20135;-83
2023/12/23 05:22:43;;;;;;;0.00;0.00;;;;;;;26.64;83.35;100380.41;10485182;28;20480;-82
2023/12/23 05:27:45;;;;;;;0.43;0.20;;;;;;;26.09;85.78;100379.53;10474146;28;20505;-82
2023/12/23 05:32:47;;;;;;;0.30;0.25;;;;;;;26.56;85.04;100373.72;10474967;28;20127;-82
2023/12/23 05:37:49;;;;;;;1.08;0.38;;;;;;;26.27;84.40;100365.44;10491780;28;20067;-83
2023/12/23 05:42:51;;;;;;;0.20;0.10;;;;;;;24.98;87.47;100370.31;10478634;28;20083;-84
2023/12/23 05:47:53;;;;;;;0.00;0.00;;;;;;;25.11;86.31;100375.09;10475462;28;20480;-82
2023/12/23 05:52:55;;;;;;;0.55;0.28;;;;;;;27.34;82.80;100380.41;10492231;28;20780;-82
2023/12/23 05:57:57;;;;;;;1.35;0.30;;;;;;;27.08;84.54;100359.69;10494546;28;20059;-82
2023/12/23 06:02:58;;;;;;;0.03;0.03;;;;;;;25.89;88.64;100361.97;10475103;28;20518;-82
2023/12/23 06:08:00;;;;;;;0.05;0.00;;;;;;;25.72;87.36;100360.13;10464303;28;20056;-83
2023/12/23 06:13:02;;;;;;;1.08;0.70;;;;;;;25.59;86.54;100344.81;10474916;28;20131;-83
2023/12/23 06:18:05;;;;;;;0.32;0.10;;;;;;;27.07;83.56;100342.09;10478061;28;20051;-82
2023/12/23 06:23:07;;;;;;;0.00;0.00;;;;;;;26.46;84.72;100356.63;10476424;28;20043;-82
2023/12/23 06:28:09;;;;;;;0.00;0.00;;;;;;;25.85;85.71;100344.53;10483107;28;20053;-83
2023/12/23 06:33:11;;;;;;;4.72;0.90;;;;;;;26.29;83.83;100354.78;10465682;28;20068;-83
2023/12/23 06:38:15;;;;;;;0.08;0.08;;;;;;;26.70;85.83;100351.03;10476383;28;20135;-82
2023/12/23 06:43:18;;;;;;;0.47;0.00;;;;;;;25.28;86.27;100348.81;10463518;28;20072;-83
2023/12/23 06:48:39;;;;;;;0.00;0.00;;;;;;;26.63;85.90;100347.84;10473860;28;20049;-83
2023/12/23 06:53:42;;;;;;;0.05;0.05;;;;;;;26.52;85.04;100337.81;10499103;28;20125;-83
2023/12/23 06:58:44;;;;;;;0.00;0.00;;;;;;;26.49;87.46;100356.44;10491370;28;20507;-83
2023/12/23 07:03:46;;;;;;;0.40;0.20;;;;;;;25.92;88.42;100354.75;10472366;28;20036;-82
2023/12/23 07:08:48;;;;;;;1.27;0.80;;;;;;;24.28;91.78;100359.13;10458447;28;20109;-82
2023/12/23 07:13:51;;;;;;;0.00;0.00;;;;;;;25.54;90.34;100341.56;10483105;28;20045;-83
2023/12/23 07:18:53;;;;;;;0.73;0.13;;;;;;;25.66;87.80;100346.25;10489836;28;20040;-82
2023/12/23 07:23:55;;;;;;;0.05;0.05;;;;;;;26.97;85.99;100355.88;10485416;28;20044;-81
2023/12/23 07:28:57;;;;;;;0.00;0.00;;;;;;;25.44;89.83;100366.63;10491377;28;20052;-83
2023/12/23 07:33:59;;;;;;;0.98;0.98;;;;;;;26.21;86.84;100362.25;10473461;28;20495;-83
2023/12/23 07:39:03;;;;;;;0.40;0.10;;;;;;;25.49;87.61;100364.66;10490702;28;20553;-83
2023/12/23 07:44:05;;;;;;;1.00;0.20;;;;;;;25.98;89.51;100375.56;10492316;28;20158;-82
2023/12/23 07:49:07;;;;;;;0.25;0.22;;;;;;;26.69;87.51;100386.31;10472985;28;20070;-83
2023/12/23 07:54:09;;;;;;;2.17;0.35;;;;;;;26.17;88.65;100387.06;10490219;28;20621;-82
2023/12/23 07:59:11;;;;;;;0.68;0.68;;;;;;;25.39;90.98;100400.25;10473633;28;20052;-83
2023/12/23 08:04:13;;;;;;;0.00;0.00;;;;;;;26.70;87.79;100395.94;10472288;28;20033;-83
2023/12/23 08:09:15;;;;;;;0.25;0.00;;;;;;;26.22;87.59;100390.34;10474128;28;20075;-83
2023/12/23 08:14:17;;;;;;;0.20;0.20;;;;;;;28.26;83.16;100400.19;10490266;28;20043;-82
2023/12/23 08:19:19;;;;;;;2.28;0.32;;;;;;;27.54;84.48;100400.53;10513977;28;20055;-82
2023/12/23 08:24:22;;;;;;;0.00;0.00;;;;;;;26.46;85.44;100420.00;10461439;28;20040;-82
2023/12/23 08:29:25;;;;;;;0.03;0.03;;;;;;;27.04;84.60;100421.56;10474953;28;20492;-82
2023/12/23 08:34:28;;;;;;;2.00;0.43;;;;;;;25.74;85.95;100409.25;10481279;28;20662;-82
2023/12/23 08:39:30;;;;;;;0.00;0.00;;;;;;;26.94;85.55;100415.03;10489789;28;20188;-83
2023/12/23 08:44:32;;;;;;;0.60;0.30;;;;;;;26.05;83.98;100423.66;10493856;28;20068;-82
2023/12/23 08:49:33;;;;;;;0.38;0.22;;;;;;;27.61;84.48;100422.22;10468357;28;20040;-82
2023/12/23 08:54:35;;;;;;;0.13;0.13;;;;;;;26.10;86.50;100426.13;10499704;28;20058;-82
2023/12/23 08:59:40;;;;;;;0.00;0.00;;;;;;;26.06;84.41;100432.41;10463632;28;20326;-82
2023/12/23 09:04:41;;;;;;;0.08;0.08;;;;;;;26.36;86.36;100431.94;10479588;28;20093;-81
2023/12/23 09:09:43;;;;;;;0.00;0.00;;;;;;;26.07;83.58;100434.13;10476167;28;20052;-82
2023/12/23 09:14:46;;;;;;;0.00;0.00;;;;;;;26.16;83.52;100443.44;10457782;28;20075;-84
2023/12/23 09:19:48;;;;;;;0.10;0.10;;;;;;;26.84;83.77;100440.22;10471288;28;20063;-82
2023/12/23 09:24:49;;;;;;;2.40;0.30;;;;;;;26.12;82.57;100453.28;10481699;28;20106;-82
2023/12/23 09:29:51;;;;;;;0.00;0.00;;;;;;;26.23;83.72;100465.97;10481484;28;20131;-82
2023/12/23 09:34:55;;;;;;;0.63;0.47;;;;;;;26.29;81.57;100470.97;10490411;28;20131;-83
2023/12/23 09:39:59;;;;;;;0.10;0.10;;;;;;;27.23;80.75;100466.44;10472089;28;20044;-82
2023/12/23 09:45:01;;;;;;;1.10;0.43;;;;;;;26.82;81.22;100471.13;10501233;28;20422;-82
2023/12/23 09:50:04;;;;;;;0.08;0.00;;;;;;;27.68;81.23;100476.53;10471069;28;20058;-81
2023/12/23 09:55:09;;;;;;;0.00;0.00;;;;;;;28.00;80.11;100480.09;10504305;28;20131;-82
2023/12/23 10:00:12;;;;;;;0.00;0.00;;;;;;;26.90;80.98;100492.75;10476035;28;20059;-81
2023/12/23 10:05:15;;;;;;;0.00;0.00;;;;;;;27.14;81.44;100496.00;10475296;28;20594;-82
2023/12/23 10:10:17;;;;;;;1.50;0.93;;;;;;;27.33;81.72;100489.75;10458591;28;20056;-82
2023/12/23 10:15:19;;;;;;;0.17;0.10;;;;;;;27.08;82.53;100491.88;10474569;28;20044;-82
2023/12/23 10:20:21;;;;;;;0.00;0.00;;;;;;;26.89;81.19;100491.06;10481190;28;20052;-82
2023/12/23 10:25:23;;;;;;;0.10;0.10;;;;;;;26.49;82.96;100499.09;10483034;28;20094;-82
2023/12/23 10:30:26;;;;;;;0.08;0.08;;;;;;;26.92;81.85;100507.63;10478990;28;20071;-82
2023/12/23 10:35:31;;;;;;;0.00;0.00;;;;;;;27.17;82.85;100495.84;10477404;28;20173;-82
2023/12/23 10:40:33;;;;;;;0.00;0.00;;;;;;;27.29;82.14;100502.28;10488247;28;20048;-82
2023/12/23 10:45:37;;;;;;;2.10;0.95;;;;;;;27.90;81.41;100493.91;10468681;28;20452;-81
2023/12/23 10:50:40;;;;;;;5.35;0.80;;;;;;;27.32;82.81;100503.91;10481738;28;20045;-82
2023/12/23 10:55:43;;;;;;;0.00;0.00;;;;;;;27.37;81.56;100507.19;10517079;28;20123;-81
2023/12/23 11:00:46;;;;;;;0.30;0.00;;;;;;;27.36;82.43;100510.78;10472203;28;20561;-82
2023/12/23 11:05:50;;;;;;;0.10;0.00;;;;;;;27.80;82.22;100515.59;10494740;28;20076;-81
2023/12/23 11:10:52;;;;;;;0.47;0.10;;;;;;;26.78;84.02;100514.50;10515370;28;20109;-81
2023/12/23 11:15:55;;;;;;;0.60;0.30;;;;;;;27.40;81.20;100512.31;10478917;28;20059;-81
2023/12/23 11:20:58;;;;;;;0.00;0.00;;;;;;;27.94;82.28;100496.31;10479263;28;20049;-81
2023/12/23 11:26:03;;;;;;;0.08;0.08;;;;;;;26.43;82.95;100509.94;10470193;28;20048;-81
2023/12/23 11:31:06;;;;;;;0.43;0.43;;;;;;;26.48;84.12;100507.94;10498857;28;20044;-81
2023/12/23 11:36:08;;;;;;;0.28;0.28;;;;;;;28.07;81.22;100501.84;10492223;28;20098;-83
2023/12/23 11:41:12;;;;;;;0.00;0.00;;;;;;;27.30;81.82;100500.50;10500108;28;20124;-83
2023/12/23 11:46:18;;;;;;;0.00;0.00;;;;;;;27.19;81.88;100498.38;10486540;28;20083;-83
2023/12/23 11:51:20;;;;;;;0.13;0.13;;;;;;;28.86;78.02;100509.88;10498088;28;20064;-83
2023/12/23 11:56:22;;;;;;;0.00;0.00;;;;;;;27.32;79.27;100510.09;10475819;28;20098;-83
2023/12/23 12:01:24;;;;;;;0.00;0.00;;;;;;;28.15;79.44;100510.22;10477710;28;20098;-83
2023/12/23 12:06:26;;;;;;;0.17;0.13;;;;;;;27.79;79.51;100513.88;10477233;28;20048;-83
2023/12/23 12:11:28;;;;;;;0.10;0.10;;;;;;;27.49;78.85;100516.31;10480247;28;20043;-83
2023/12/23 12:16:30;;;;;;;0.00;0.00;;;;;;;27.61;77.23;100530.69;10482561;28;20044;-83
2023/12/23 12:21:32;;;;;;;0.40;0.17;;;;;;;27.22;79.13;100514.94;10474913;28;20071;-83
2023/12/23 12:26:34;;;;;;;0.47;0.30;;;;;;;26.74;79.87;100508.50;10484108;28;20888;-84
2023/12/23 12:31:37;;;;;;;0.32;0.32;;;;;;;26.56;78.87;100516.34;10462009;28;20094;-83
2023/12/23 12:36:39;;;;;;;0.20;0.05;;;;;;;27.34;77.37;100512.63;10479285;28;20520;-82
2023/12/23 12:41:41;;;;;;;0.20;0.10;;;;;;;27.63;76.04;100529.69;10493029;28;20698;-82
2023/12/23 12:46:44;;;;;;;0.00;0.00;;;;;;;27.07;77.86;100526.28;10506691;28;20055;-83
2023/12/23 12:51:46;;;;;;;0.00;0.00;;;;;;;28.34;75.13;100541.88;10485177;28;20090;-83
2023/12/23 12:56:48;;;;;;;1.60;0.65;;;;;;;27.36;76.35;100537.22;10483251;28;20484;-82
2023/12/23 13:01:50;;;;;;;6.45;0.38;;;;;;;26.53;76.39;100544.69;10483847;28;20723;-82
2023/12/23 13:06:52;;;;;;;0.00;0.00;;;;;;;26.42;77.90;100545.19;10474517;28;20052;-83
2023/12/23 13:11:54;;;;;;;0.00;0.00;;;;;;;26.87;78.26;100544.00;10499664;28;20040;-83
2023/12/23 13:16:56;;;;;;;0.05;0.05;;;;;;;27.42;77.25;100560.75;10500247;28;20052;-83
2023/12/23 13:21:58;;;;;;;0.73;0.32;;;;;;;26.59;77.54;100554.97;10519433;28;20029;-83
2023/12/23 13:27:00;;;;;;;0.00;0.00;;;;;;;27.76;76.30;100572.25;10493109;28;20040;-82
2023/12/23 13:32:03;;;;;;;0.00;0.00;;;;;;;28.13;74.73;100565.06;10486136;28;20083;-82
2023/12/23 13:37:05;;;;;;;0.20;0.20;;;;;;;26.89;77.02;100576.50;10451259;28;20051;-82
2023/12/23 13:42:08;;;;;;;0.00;0.00;;;;;;;27.64;76.26;100586.13;10474056;28;20396;-82
2023/12/23 13:47:11;;;;;;;0.38;0.38;;;;;;;28.62;74.06;100577.44;10471923;28;20048;-81
2023/12/23 13:52:18;;;;;;;0.00;0.00;;;;;;;29.10;73.19;100582.75;10470995;28;20127;-82
2023/12/23 13:57:21;;;;;;;0.00;0.00;;;;;;;29.79;72.66;100597.41;10459564;28;20051;-82
2023/12/23 14:02:24;;;;;;;0.15;0.08;;;;;;;28.63;73.47;100595.03;10482087;28;20052;-82
2023/12/23 14:07:26;;;;;;;0.00;0.00;;;;;;;28.58;74.26;100594.44;10487808;28;20052;-81
2023/12/23 14:12:28;;;;;;;0.00;0.00;;;;;;;27.62;73.63;100606.50;10476762;28;20044;-82
2023/12/23 14:17:32;;;;;;;0.00;0.00;;;;;;;27.62;74.05;100610.03;10492214;28;20048;-82
2023/12/23 14:22:34;;;;;;;0.00;0.00;;;;;;;26.94;75.90;100599.19;10463717;28;20056;-83
2023/12/23 14:27:35;;;;;;;0.00;0.00;;;;;;;26.89;75.58;100592.34;10457446;28;20055;-83
2023/12/23 14:32:37;;;;;;;0.00;0.00;;;;;;;27.97;73.88;100611.78;10490317;28;20044;-83
2023/12/23 14:37:39;;;;;;;0.00;0.00;;;;;;;28.42;72.95;100617.41;10472993;28;20534;-82
2023/12/23 14:42:51;;;;;;;2.13;0.38;;;;;;;27.08;74.01;100623.19;10471694;28;20045;-82
2023/12/23 14:47:53;;;;;;;0.00;0.00;;;;;;;27.80;74.16;100636.47;10490198;28;20102;-83
2023/12/23 14:52:54;;;;;;;0.00;0.00;;;;;;;29.53;72.50;100635.16;10486325;28;20037;-83
2023/12/23 14:57:56;;;;;;;0.68;0.50;;;;;;;28.02;73.45;100641.53;10481055;28;20045;-83
2023/12/23 15:03:00;;;;;;;0.00;0.00;;;;;;;29.07;71.79;100649.25;10502442;28;20045;-82
2023/12/23 15:08:03;;;;;;;0.00;0.00;;;;;;;29.37;72.13;100645.81;10471979;28;20143;-83
2023/12/23 15:13:06;;;;;;;0.10;0.10;;;;;;;28.81;72.97;100664.78;10513227;28;20105;-83
2023/12/23 15:18:08;;;;;;;0.00;0.00;;;;;;;28.73;72.19;100664.34;10485410;28;20037;-83
2023/12/23 15:23:10;;;;;;;0.00;0.00;;;;;;;29.31;72.60;100675.31;10487004;28;20075;-83
2023/12/23 15:28:11;;;;;;;1.08;0.45;;;;;;;28.84;72.19;100676.16;10497110;28;20587;-82
2023/12/23 15:33:14;;;;;;;0.00;0.00;;;;;;;29.04;72.50;100678.56;10477509;28;20143;-82
2023/12/23 15:38:16;;;;;;;0.00;0.00;;;;;;;29.15;72.62;100675.31;10461302;28;21658;-84
2023/12/23 15:43:18;;;;;;;0.00;0.00;;;;;;;28.29;73.88;100676.34;10477530;28;20043;-82
2023/12/23 15:48:19;;;;;;;1.27;0.22;;;;;;;29.09;72.65;100680.97;10478916;28;20064;-82
2023/12/23 15:53:21;;;;;;;0.00;0.00;;;;;;;28.78;72.79;100680.84;10493425;28;20044;-83
2023/12/23 15:58:23;;;;;;;1.02;0.17;;;;;;;28.21;73.84;100688.28;10494543;28;20127;-83
2023/12/23 16:03:25;;;;;;;1.13;0.30;;;;;;;28.55;73.69;100691.81;10475668;28;20072;-83
2023/12/23 16:08:27;;;;;;;0.30;0.20;;;;;;;28.54;73.31;100695.41;10456272;28;20048;-83
2023/12/23 16:13:29;;;;;;;0.10;0.10;;;;;;;28.63;74.24;100697.56;10464692;28;20051;-83
2023/12/23 16:18:31;;;;;;;0.00;0.00;;;;;;;28.76;72.76;100690.69;10457425;28;20071;-83
2023/12/23 16:23:32;;;;;;;0.00;0.00;;;;;;;29.34;72.63;100676.97;10473800;28;20040;-83
2023/12/23 16:28:35;;;;;;;0.00;0.00;;;;;;;28.13;74.30;100683.38;10472730;28;20126;-84
2023/12/23 16:33:37;;;;;;;0.80;0.20;;;;;;;28.95;74.41;100684.38;10472167;28;20036;-84
2023/12/23 16:38:39;;;;;;;0.00;0.00;;;;;;;28.42;74.25;100686.31;10467145;28;20079;-83
2023/12/23 16:43:40;;;;;;;0.55;0.32;;;;;;;28.33;75.43;100690.31;10469215;28;20068;-83
2023/12/23 16:48:43;;;;;;;0.47;0.13;;;;;;;28.30;73.95;100688.63;10472854;28;20588;-83
2023/12/23 16:53:45;;;;;;;0.10;0.00;;;;;;;29.06;73.36;100692.59;10468995;28;20050;-83
2023/12/23 16:58:47;;;;;;;0.28;0.13;;;;;;;26.95;75.99;100693.44;10476568;28;20048;-83
2023/12/23 17:03:49;;;;;;;1.55;0.47;;;;;;;27.59;75.69;100692.19;10487980;28;20048;-82
2023/12/23 17:08:51;;;;;;;0.08;0.08;;;;;;;29.93;72.63;100682.44;10469402;28;20143;-83
2023/12/23 17:13:53;;;;;;;0.10;0.10;;;;;;;27.91;73.46;100697.69;10470582;28;20114;-83
2023/12/23 17:18:54;;;;;;;17.55;2.63;;;;;;;26.19;78.24;100692.31;10467583;28;20052;-83
2023/12/23 17:23:56;;;;;;;0.20;0.20;;;;;;;26.89;76.64;100703.38;10466247;28;20052;-83
2023/12/23 17:28:58;;;;;;;0.10;0.10;;;;;;;27.21;80.29;100698.38;10472750;28;20086;-84
2023/12/23 17:34:00;;;;;;;0.88;0.68;;;;;;;26.56;81.12;100696.00;10453511;28;20045;-84
2023/12/23 17:39:02;;;;;;;0.22;0.15;;;;;;;28.58;78.80;100686.34;10449651;28;20045;-83
2023/12/23 17:44:04;;;;;;;0.80;0.73;;;;;;;27.39;78.74;100678.13;10462250;28;20587;-82
2023/12/23 17:49:06;;;;;;;1.73;0.82;;;;;;;27.27;77.55;100691.06;10466186;28;20093;-83
2023/12/23 17:54:09;;;;;;;0.00;0.00;;;;;;;28.00;77.55;100712.25;10471789;28;20033;-83
2023/12/23 17:59:11;;;;;;;0.00;0.00;;;;;;;28.62;75.73;100695.84;10452222;28;20135;-83
2023/12/23 18:04:13;;;;;;;0.20;0.10;;;;;;;27.65;75.54;100697.19;10465133;28;20140;-83
2023/12/23 18:09:15;;;;;;;0.00;0.00;;;;;;;27.73;76.36;100691.53;10464746;28;20045;-83
2023/12/23 18:14:17;;;;;;;0.10;0.10;;;;;;;28.32;75.20;100685.94;10488121;28;20048;-84
2023/12/23 18:19:19;;;;;;;15.02;0.70;;;;;;;27.83;76.64;100695.41;10491755;28;20068;-83
2023/12/23 18:24:21;;;;;;;0.00;0.00;;;;;;;27.06;78.10;100693.81;10473167;28;20399;-84
2023/12/23 18:29:23;;;;;;;0.00;0.00;;;;;;;27.83;77.66;100683.97;10476038;28;20049;-84
2023/12/23 18:34:26;;;;;;;1.15;1.02;;;;;;;26.83;79.47;100708.94;10477186;28;20044;-84
2023/12/23 18:39:28;;;;;;;0.32;0.30;;;;;;;26.63;82.34;100696.59;10460571;28;20043;-83
2023/12/23 18:44:30;;;;;;;0.00;0.00;;;;;;;26.93;81.89;100696.16;10481309;28;20582;-84
2023/12/23 18:49:32;;;;;;;0.00;0.00;;;;;;;25.72;84.88;100697.81;10496867;28;20395;-84
2023/12/23 18:54:36;;;;;;;0.00;0.00;;;;;;;26.71;82.30;100691.81;10498374;28;20044;-83
2023/12/23 18:59:38;;;;;;;0.10;0.10;;;;;;;27.57;80.54;100687.91;10463190;28;20105;-83
2023/12/23 19:04:40;;;;;;;0.00;0.00;;;;;;;25.77;81.02;100690.53;10461744;28;20054;-84
2023/12/23 19:09:42;;;;;;;0.00;0.00;;;;;;;25.69;82.77;100682.09;10463400;28;20052;-84
2023/12/23 19:14:43;;;;;;;0.00;0.00;;;;;;;26.82;79.67;100696.66;10480866;28;20589;-84
2023/12/23 19:19:45;;;;;;;0.00;0.00;;;;;;;26.73;80.31;100687.31;10471624;28;20045;-83
2023/12/23 19:24:47;;;;;;;0.00;0.00;;;;;;;26.68;79.95;100683.19;10454865;28;20047;-84
2023/12/23 19:29:49;;;;;;;0.32;0.20;;;;;;;27.28;79.13;100682.22;10482356;28;20051;-84
2023/12/23 19:34:50;;;;;;;0.32;0.32;;;;;;;25.66;80.53;100694.47;10474385;28;20045;-84
2023/12/23 19:39:52;;;;;;;0.00;0.00;;;;;;;25.63;81.58;100694.63;10495071;28;20048;-83
2023/12/23 19:45:08;;;;;;;0.00;0.00;;;;;;;25.96;83.22;100701.19;10475901;28;20063;-83
2023/12/23 19:50:10;;;;;;;1.27;0.68;;;;;;;24.71;84.55;100709.53;10497145;28;20055;-84
2023/12/23 19:55:12;;;;;;;0.20;0.20;;;;;;;25.39;84.41;100690.31;10479927;28;20041;-84
2023/12/23 20:00:14;;;;;;;0.15;0.15;;;;;;;25.92;82.95;100699.59;10475453;28;20759;-84
2023/12/23 20:05:16;;;;;;;0.00;0.00;;;;;;;25.52;83.88;100686.25;10464495;28;20131;-84
2023/12/23 20:10:19;;;;;;;0.00;0.00;;;;;;;27.16;80.62;100694.22;10495107;28;20078;-84
2023/12/23 20:15:20;;;;;;;0.43;0.43;;;;;;;26.80;81.26;100693.22;10477927;28;20085;-84
2023/12/23 20:20:22;;;;;;;0.47;0.35;;;;;;;25.83;80.18;100707.91;10472970;28;20063;-83
2023/12/23 20:25:24;;;;;;;0.05;0.05;;;;;;;25.84;81.49;100693.81;10473560;28;20045;-84
2023/12/23 20:30:26;;;;;;;0.10;0.10;;;;;;;26.54;79.48;100700.50;10478963;28;20098;-83
2023/12/23 20:35:28;;;;;;;0.00;0.00;;;;;;;25.88;81.17;100677.75;10481098;28;20045;-83
2023/12/23 20:40:29;;;;;;;0.10;0.08;;;;;;;26.58;78.47;100693.31;10513670;28;20086;-83
2023/12/23 20:45:31;;;;;;;0.10;0.10;;;;;;;26.18;79.45;100695.88;10480416;28;20044;-84
2023/12/23 20:50:33;;;;;;;0.00;0.00;;;;;;;26.21;78.98;100690.47;10477741;28;20131;-83
2023/12/23 20:55:35;;;;;;;1.75;0.20;;;;;;;25.93;80.00;100665.25;10494841;28;20095;-83
2023/12/23 21:00:37;;;;;;;1.55;0.22;;;;;;;26.25;79.08;100681.50;10490985;28;20056;-83
2023/12/23 21:05:38;;;;;;;0.13;0.13;;;;;;;26.54;78.96;100684.66;10472766;28;20120;-83
2023/12/23 21:10:40;;;;;;;0.05;0.05;;;;;;;26.54;77.99;100683.78;10472179;28;20076;-83
2023/12/23 21:15:42;;;;;;;0.00;0.00;;;;;;;27.14;77.95;100694.31;10473595;28;20131;-82
2023/12/23 21:20:44;;;;;;;0.00;0.00;;;;;;;25.54;82.41;100686.22;10464138;28;20126;-84
2023/12/23 21:25:45;;;;;;;0.10;0.10;;;;;;;26.74;81.47;100669.69;10491894;28;20040;-82
2023/12/23 21:30:47;;;;;;;0.38;0.13;;;;;;;25.72;81.95;100666.97;10475359;28;20075;-83
2023/12/23 21:35:49;;;;;;;0.10;0.10;;;;;;;26.24;80.78;100674.53;10456358;28;20048;-83
2023/12/23 21:40:50;;;;;;;0.10;0.10;;;;;;;26.97;80.17;100649.28;10496409;28;20072;-83
2023/12/23 21:45:53;;;;;;;0.00;0.00;;;;;;;25.11;81.37;100671.13;10460338;28;20048;-84
2023/12/23 21:50:55;;;;;;;0.28;0.28;;;;;;;25.43;82.90;100660.28;10488228;28;20048;-84
2023/12/23 21:55:56;;;;;;;0.00;0.00;;;;;;;26.66;81.40;100663.88;10473763;28;20060;-83
2023/12/23 22:00:59;;;;;;;0.10;0.10;;;;;;;25.94;80.32;100656.41;10479132;28;20039;-83
2023/12/23 22:06:01;;;;;;;0.00;0.00;;;;;;;27.04;79.80;100648.06;10497800;28;20446;-83
2023/12/23 22:11:03;;;;;;;0.00;0.00;;;;;;;24.60;82.04;100630.88;10472981;28;20498;-89
2023/12/23 22:16:06;;;;;;;0.00;0.00;;;;;;;25.71;82.27;100625.69;10465800;28;20044;-84
2023/12/23 22:21:12;;;;;;;0.03;0.03;;;;;;;26.80;81.38;100635.06;10485296;28;20049;-84
2023/12/23 22:26:14;;;;;;;0.82;0.30;;;;;;;26.62;82.07;100627.97;10489034;28;20444;-83
2023/12/23 22:31:15;;;;;;;0.00;0.00;;;;;;;26.01;79.50;100625.31;10499332;28;20522;-83
2023/12/23 22:36:18;;;;;;;0.17;0.17;;;;;;;26.11;80.09;100620.50;10467203;28;20107;-83
2023/12/23 22:41:19;;;;;;;0.05;0.05;;;;;;;26.17;81.38;100620.28;10483447;28;20055;-83
2023/12/23 22:46:21;;;;;;;0.20;0.20;;;;;;;26.89;79.46;100608.22;10464153;28;20041;-83
2023/12/23 22:51:23;;;;;;;1.60;0.45;;;;;;;24.37;82.93;100603.63;10455992;28;20415;-83
2023/12/23 22:56:25;;;;;;;0.10;0.10;;;;;;;25.96;81.61;100601.75;10462730;28;20067;-83
2023/12/23 23:01:26;;;;;;;0.22;0.13;;;;;;;25.84;80.18;100612.84;10473900;28;20044;-83
2023/12/23 23:06:30;;;;;;;0.10;0.10;;;;;;;25.20;82.71;100622.47;10478471;28;20040;-84